createdAt,value
2023-03-12T00:02:51.520Z,32.53
2023-03-12T00:07:54.787Z,32.10
2023-03-12T00:12:57.699Z,31.50
2023-03-12T00:18:01.876Z,32.28
2023-03-12T00:23:04.698Z,31.50
2023-03-12T00:28:07.546Z,31.30
2023-03-12T00:33:12.495Z,32.17
2023-03-12T00:38:15.348Z,31.37
2023-03-12T00:43:18.209Z,32.03
2023-03-12T00:48:22.429Z,32.63
2023-03-12T00:53:25.261Z,32.10
2023-03-12T00:58:28.169Z,32.20
2023-03-12T01:03:32.365Z,32.53
2023-03-12T01:08:35.563Z,32.10
2023-03-12T01:13:38.461Z,32.80
2023-03-12T01:18:42.771Z,32.80
2023-03-12T01:23:45.664Z,32.80
2023-03-12T01:28:48.712Z,32.67
2023-03-12T01:33:54.459Z,33.00
2023-03-12T01:38:58.977Z,33.17
2023-03-12T01:44:03.790Z,32.97
2023-03-12T01:49:12.463Z,32.17
2023-03-12T01:54:19.459Z,32.40
2023-03-12T01:59:26.191Z,32.93
2023-03-12T02:04:32.230Z,33.50
2023-03-12T02:09:37.814Z,32.63
2023-03-12T02:14:40.992Z,31.93
2023-03-12T02:19:56.624Z,32.97
2023-03-12T02:25:05.151Z,32.30
2023-03-12T02:30:15.129Z,32.47
2023-03-12T02:35:18.664Z,32.90
2023-03-12T02:40:27.480Z,33.00
2023-03-12T02:45:32.239Z,33.40
2023-03-12T02:50:35.232Z,32.30
2023-03-12T02:55:40.021Z,32.23
2023-03-12T03:00:44.296Z,33.00
2023-03-12T03:05:47.362Z,33.20
2023-03-12T03:10:51.967Z,32.57
2023-03-12T03:15:57.654Z,32.57
2023-03-12T03:21:03.012Z,33.17
2023-03-12T03:26:07.737Z,32.77
2023-03-12T03:31:12.200Z,32.90
2023-03-12T03:36:17.487Z,34.05
2023-03-12T03:41:29.060Z,33.73
2023-03-12T03:46:35.214Z,33.30
2023-03-12T03:51:42.536Z,33.67
2023-03-12T03:56:47.517Z,33.73
2023-03-12T04:01:52.254Z,34.07
2023-03-12T04:06:55.327Z,33.73
2023-03-12T04:11:58.399Z,33.27
2023-03-12T04:17:02.786Z,33.23
2023-03-12T04:22:05.985Z,33.03
2023-03-12T04:27:08.918Z,32.60
2023-03-12T04:32:13.445Z,33.97
2023-03-12T04:37:16.696Z,33.73
2023-03-12T04:42:20.290Z,32.67
2023-03-12T04:47:25.697Z,33.67
2023-03-12T04:52:28.774Z,32.73
2023-03-12T04:57:31.868Z,32.37
2023-03-12T05:02:37.189Z,32.73
2023-03-12T05:07:40.197Z,33.53
2023-03-12T05:12:43.324Z,33.00
2023-03-12T05:17:47.738Z,34.10
2023-03-12T05:22:50.884Z,32.63
2023-03-12T05:27:55.082Z,34.03
2023-03-12T05:33:00.025Z,33.23
2023-03-12T05:38:03.679Z,33.90
2023-03-12T05:43:06.692Z,34.57
2023-03-12T05:48:11.379Z,33.20
2023-03-12T05:53:15.149Z,32.43
2023-03-12T05:58:18.999Z,32.83
2023-03-12T06:03:23.427Z,32.97
2023-03-12T06:08:27.477Z,33.03
2023-03-12T06:13:30.766Z,32.67
2023-03-12T06:18:36.488Z,32.97
2023-03-12T06:23:39.835Z,33.13
2023-03-12T06:28:45.858Z,33.40
2023-03-12T06:33:50.180Z,33.70
2023-03-12T06:38:55.887Z,33.00
2023-03-12T06:44:01.813Z,33.93
2023-03-12T06:49:06.250Z,33.80
2023-03-12T06:54:09.196Z,33.63
2023-03-12T06:59:12.110Z,33.17
2023-03-12T07:04:16.490Z,32.07
2023-03-12T07:09:19.733Z,31.15
2023-03-12T07:14:22.694Z,31.05
2023-03-12T07:19:26.920Z,30.83
2023-03-12T07:24:30.207Z,30.77
2023-03-12T07:29:33.095Z,30.85
2023-03-12T07:34:37.349Z,31.27
2023-03-12T07:39:44.590Z,31.20
2023-03-12T07:44:47.525Z,31.15
2023-03-12T07:49:51.829Z,31.67
2023-03-12T07:54:56.518Z,32.17
2023-03-12T07:59:59.589Z,31.80
2023-03-12T08:05:04.268Z,32.28
2023-03-12T08:10:09.771Z,31.35
2023-03-12T08:15:14.905Z,32.28
2023-03-12T08:20:19.393Z,35.10
2023-03-12T08:25:24.661Z,36.42
2023-03-12T08:30:30.105Z,35.28
2023-03-12T08:35:34.539Z,35.17
2023-03-12T08:40:37.444Z,35.42
2023-03-12T08:45:40.335Z,35.33
2023-03-12T08:50:51.269Z,35.60
2023-03-12T08:55:54.952Z,34.70
2023-03-12T09:01:03.712Z,37.35
2023-03-12T09:06:13.172Z,34.05
2023-03-12T09:11:16.687Z,34.10
2023-03-12T09:16:19.564Z,32.58
2023-03-12T09:21:23.839Z,32.38
2023-03-12T09:26:26.722Z,32.85
2023-03-12T09:31:29.737Z,32.70
2023-03-12T09:36:34.258Z,32.40
2023-03-12T09:41:40.320Z,32.75
2023-03-12T09:46:47.641Z,32.72
2023-03-12T09:51:56.672Z,32.83
2023-03-12T09:57:03.859Z,33.22
2023-03-12T10:02:23.693Z,32.95
2023-03-12T10:07:32.299Z,34.60
2023-03-12T10:12:47.690Z,33.72
2023-03-12T10:17:59.802Z,34.33
2023-03-12T10:23:09.966Z,34.83
2023-03-12T10:28:17.874Z,34.60
2023-03-12T10:33:22.037Z,33.75
2023-03-12T10:38:30.668Z,33.58
2023-03-12T10:43:35.837Z,33.13
2023-03-12T10:48:38.774Z,33.22
2023-03-12T10:53:47.753Z,33.50
2023-03-12T10:58:52.241Z,33.17
2023-03-12T11:04:10.512Z,33.65
2023-03-12T11:09:19.818Z,33.63
2023-03-12T11:14:27.789Z,33.75
2023-03-12T11:19:32.456Z,33.47
2023-03-12T11:24:37.125Z,35.05
2023-03-12T11:29:44.164Z,34.03
2023-03-12T11:34:49.467Z,33.90
2023-03-12T11:40:09.907Z,33.42
2023-03-12T11:45:14.845Z,34.42
2023-03-12T11:50:27.844Z,35.17
2023-03-12T11:55:50.116Z,34.25
2023-03-12T12:01:03.361Z,34.00
2023-03-12T12:06:11.827Z,34.42
2023-03-12T12:11:25.502Z,33.33
2023-03-12T12:16:58.692Z,34.15
2023-03-12T12:22:20.544Z,34.33
2023-03-12T12:27:28.407Z,33.83
2023-03-12T12:32:42.007Z,34.42
2023-03-12T12:37:57.529Z,34.63
2023-03-12T12:43:12.169Z,35.35
2023-03-12T12:48:19.835Z,34.15
2023-03-12T12:53:26.613Z,34.10
2023-03-12T12:58:46.293Z,34.45
2023-03-12T13:03:50.932Z,34.90
2023-03-12T13:09:03.235Z,34.15
2023-03-12T13:14:22.182Z,33.97
2023-03-12T13:19:28.881Z,33.45
2023-03-12T13:24:34.905Z,34.22
2023-03-12T13:29:43.074Z,33.92
2023-03-12T13:34:47.325Z,33.50
2023-03-12T13:39:51.768Z,34.28
2023-03-12T13:44:56.984Z,33.83
2023-03-12T13:50:04.548Z,34.22
2023-03-12T13:55:17.247Z,33.75
2023-03-12T14:00:27.340Z,34.05
2023-03-12T14:05:44.379Z,34.20
2023-03-12T14:10:59.104Z,33.90
2023-03-12T14:16:10.214Z,34.80
2023-03-12T14:21:16.654Z,33.92
2023-03-12T14:26:24.436Z,34.50
2023-03-12T14:31:31.158Z,35.03
2023-03-12T14:36:41.904Z,34.78
2023-03-12T14:41:50.083Z,34.63
2023-03-12T14:47:00.126Z,34.15
2023-03-12T14:52:03.228Z,34.80
2023-03-12T14:57:06.301Z,34.30
2023-03-12T15:02:16.147Z,34.65
2023-03-12T15:07:22.568Z,34.67
2023-03-12T15:12:27.766Z,34.65
2023-03-12T15:17:35.473Z,34.38
2023-03-12T15:22:39.336Z,34.17
2023-03-12T15:27:42.201Z,34.97
2023-03-12T15:33:05.562Z,34.88
2023-03-12T15:38:18.793Z,34.80
2023-03-12T15:43:24.171Z,35.92
2023-03-12T15:48:31.898Z,34.15
2023-03-12T15:53:35.675Z,34.75
2023-03-12T15:58:41.705Z,34.80
2023-03-12T16:03:47.019Z,34.13
2023-03-12T16:08:52.605Z,34.28
2023-03-12T16:14:02.796Z,34.72
2023-03-12T16:19:12.598Z,33.95
2023-03-12T16:24:16.674Z,34.72
2023-03-12T16:29:20.543Z,35.30
2023-03-12T16:34:25.139Z,35.35
2023-03-12T16:39:30.279Z,35.17
2023-03-12T16:44:35.903Z,34.80
2023-03-12T16:49:40.333Z,35.35
2023-03-12T16:54:43.213Z,36.08
2023-03-12T16:59:48.172Z,36.03
2023-03-12T17:04:52.837Z,35.13
2023-03-12T17:09:56.416Z,35.20
2023-03-12T17:15:00.097Z,35.10
2023-03-12T17:20:08.167Z,34.58
2023-03-12T17:25:21.863Z,35.22
2023-03-12T17:30:25.500Z,35.13
2023-03-12T17:35:30.297Z,34.65
2023-03-12T17:40:36.269Z,35.55
2023-03-12T17:45:39.696Z,35.10
2023-03-12T17:50:43.927Z,36.60
2023-03-12T17:55:48.280Z,34.88
2023-03-12T18:00:55.183Z,34.47
2023-03-12T18:05:59.591Z,35.72
2023-03-12T18:11:02.957Z,35.05
2023-03-12T18:16:06.446Z,34.40
2023-03-12T18:21:27.871Z,34.60
2023-03-12T18:26:30.712Z,35.05
2023-03-12T18:31:44.570Z,35.38
2023-03-12T18:36:49.521Z,35.15
2023-03-12T18:41:55.725Z,34.60
2023-03-12T18:46:58.863Z,34.63
2023-03-12T18:52:03.313Z,34.67
2023-03-12T18:57:06.331Z,34.70
2023-03-12T19:02:10.365Z,34.90
2023-03-12T19:07:14.642Z,35.00
2023-03-12T19:12:17.538Z,34.42
2023-03-12T19:17:20.378Z,38.40
2023-03-12T19:22:24.642Z,35.30
2023-03-12T19:27:29.504Z,35.38
2023-03-12T19:32:42.554Z,35.10
2023-03-12T19:37:47.397Z,35.42
2023-03-12T19:42:50.241Z,34.40
2023-03-12T19:47:54.174Z,35.67
2023-03-12T19:52:58.545Z,34.90
2023-03-12T19:58:01.381Z,34.70
2023-03-12T20:03:04.949Z,34.60
2023-03-12T20:08:09.356Z,34.85
2023-03-12T20:13:13.331Z,34.88
2023-03-12T20:18:17.002Z,35.25
2023-03-12T20:23:21.205Z,35.35
2023-03-12T20:28:24.084Z,34.03
2023-03-12T20:33:26.993Z,34.95
2023-03-12T20:38:31.302Z,34.42
2023-03-12T20:43:34.161Z,34.67
2023-03-12T20:48:37.394Z,34.80
2023-03-12T20:53:41.653Z,34.72
2023-03-12T20:58:44.470Z,35.13
2023-03-12T21:03:47.448Z,35.15
2023-03-12T21:08:51.781Z,34.75
2023-03-12T21:13:54.818Z,34.67
2023-03-12T21:18:58.171Z,34.95
2023-03-12T21:24:02.475Z,35.80
2023-03-12T21:29:05.449Z,34.72
2023-03-12T21:34:09.659Z,35.15
2023-03-12T21:39:14.017Z,36.03
2023-03-12T21:44:16.920Z,34.67
2023-03-12T21:49:19.943Z,34.97
2023-03-12T21:54:24.268Z,35.08
2023-03-12T21:59:27.126Z,34.75
2023-03-12T22:04:30.017Z,34.67
2023-03-12T22:09:34.241Z,34.63
2023-03-12T22:14:37.057Z,35.30
2023-03-12T22:19:41.930Z,34.50
2023-03-12T22:24:46.401Z,34.10
2023-03-12T22:29:52.860Z,35.15
2023-03-12T22:34:55.691Z,34.20
2023-03-12T22:40:06.660Z,35.15
2023-03-12T22:45:10.578Z,34.70
2023-03-12T22:50:14.102Z,34.70
2023-03-12T22:55:18.561Z,35.10
2023-03-12T23:00:23.018Z,34.83
2023-03-12T23:05:25.887Z,34.70
2023-03-12T23:10:30.124Z,34.90
2023-03-12T23:15:40.772Z,34.33
2023-03-12T23:20:44.793Z,34.42
2023-03-12T23:25:54.479Z,35.00
2023-03-12T23:31:00.000Z,34.45
2023-03-12T23:36:06.023Z,34.38
2023-03-12T23:41:13.711Z,34.15
2023-03-12T23:46:17.867Z,34.65
2023-03-12T23:51:23.163Z,34.65
2023-03-12T23:56:31.607Z,34.67
